Map

Track Data

SID SEASON NUMBER BASIN SUBBASIN NAME ISO_TIME NATURE LAT LON WMO_WIND WMO_PRES WMO_AGENCY TRACK_TYPE DIST2LAND LANDFALL IFLAG USA_AGENCY USA_ATCF_ID USA_LAT USA_LON USA_RECORD USA_STATUS USA_WIND USA_PRES USA_SSHS USA_R34_NE USA_R34_SE USA_R34_SW USA_R34_NW USA_R50_NE USA_R50_SE USA_R50_SW USA_R50_NW USA_R64_NE USA_R64_SE USA_R64_SW USA_R64_NW USA_POCI USA_ROCI USA_RMW USA_EYE TOKYO_LAT TOKYO_LON TOKYO_GRADE TOKYO_WIND TOKYO_PRES TOKYO_R50_DIR TOKYO_R50_LONG TOKYO_R50_SHORT TOKYO_R30_DIR TOKYO_R30_LONG TOKYO_R30_SHORT TOKYO_LAND CMA_LAT CMA_LON CMA_CAT CMA_WIND CMA_PRES HKO_LAT HKO_LON HKO_CAT HKO_WIND HKO_PRES NEWDELHI_LAT NEWDELHI_LON NEWDELHI_GRADE NEWDELHI_WIND NEWDELHI_PRES NEWDELHI_CI NEWDELHI_DP NEWDELHI_POCI REUNION_LAT REUNION_LON REUNION_TYPE REUNION_WIND REUNION_PRES REUNION_TNUM REUNION_CI REUNION_RMW REUNION_R34_NE REUNION_R34_SE REUNION_R34_SW REUNION_R34_NW REUNION_R50_NE REUNION_R50_SE REUNION_R50_SW REUNION_R50_NW REUNION_R64_NE REUNION_R64_SE REUNION_R64_SW REUNION_R64_NW BOM_LAT BOM_LON BOM_TYPE BOM_WIND BOM_PRES BOM_TNUM BOM_CI BOM_RMW BOM_R34_NE BOM_R34_SE BOM_R34_SW BOM_R34_NW BOM_R50_NE BOM_R50_SE BOM_R50_SW BOM_R50_NW BOM_R64_NE BOM_R64_SE BOM_R64_SW BOM_R64_NW BOM_ROCI BOM_POCI BOM_EYE BOM_POS_METHOD BOM_PRES_METHOD NADI_LAT NADI_LON NADI_CAT NADI_WIND NADI_PRES WELLINGTON_LAT WELLINGTON_LON WELLINGTON_WIND WELLINGTON_PRES DS824_LAT DS824_LON DS824_STAGE DS824_WIND DS824_PRES TD9636_LAT TD9636_LON TD9636_STAGE TD9636_WIND TD9636_PRES TD9635_LAT TD9635_LON TD9635_WIND TD9635_PRES TD9635_ROCI NEUMANN_LAT NEUMANN_LON NEUMANN_CLASS NEUMANN_WIND NEUMANN_PRES MLC_LAT MLC_LON MLC_CLASS MLC_WIND MLC_PRES USA_GUST BOM_GUST BOM_GUST_PER REUNION_GUST REUNION_GUST_PER USA_SEAHGT USA_SEARAD_NE USA_SEARAD_SE USA_SEARAD_SW USA_SEARAD_NW STORM_SPEED STORM_DIR
1928165N20117 1928 31 WP MM NOT_NAMED 1928-06-13 10:00:00 NR 20.3000 117.400 main 305 305 __________O___ -1 20.3000 117.400 7 1 274
1928165N20117 1928 31 WP MM NOT_NAMED 1928-06-13 12:00:00 NR 20.3026 117.361 main 305 302 __________P___ -1 20.3026 117.361 7 1 289
1928165N20117 1928 31 WP MM NOT_NAMED 1928-06-13 15:00:00 NR 20.3181 117.335 main 302 294 __________P___ -1 20.3181 117.335 7 1 28
1928165N20117 1928 31 WP MM NOT_NAMED 1928-06-13 18:00:00 NR 20.3632 117.396 main 294 291 __________P___ -1 20.3632 117.396 7 3 61
1928165N20117 1928 31 WP MM NOT_NAMED 1928-06-13 21:00:00 NR 20.4557 117.594 main 291 291 __________P___ -1 20.4557 117.594 7 5 64
1928165N20117 1928 31 WP MM NOT_NAMED 1928-06-13 22:00:00 NR 20.5000 117.700 main 295 290 __________O___ -1 20.5000 117.700 7 8 67
1928165N20117 1928 31 WP MM NOT_NAMED 1928-06-14 00:00:00 NR 20.6107 117.977 main 300 258 __________P___ -1 20.6107 117.977 7 10 67
1928165N20117 1928 31 WP MM NOT_NAMED 1928-06-14 03:00:00 NR 20.8205 118.525 main 258 179 __________P___ -1 20.8205 118.525 7 12 68
1928165N20117 1928 31 WP MM NOT_NAMED 1928-06-14 06:00:00 NR 21.0630 119.177 main 179 106 __________P___ -1 21.0630 119.177 7 14 68
1928165N20117 1928 31 WP MM NOT_NAMED 1928-06-14 09:00:00 NR 21.3166 119.871 main 106 83 __________P___ -1 21.3166 119.871 7 14 69
1928165N20117 1928 31 WP MM NOT_NAMED 1928-06-14 10:00:00 NR 21.4000 120.100 main 83 49 __________O___ -1 21.4000 120.100 7 13 68
1928165N20117 1928 31 WP MM NOT_NAMED 1928-06-14 12:00:00 NR 21.5492 120.498 main 49 22 __________P___ -1 21.5492 120.498 7 12 68
1928165N20117 1928 31 WP MM NOT_NAMED 1928-06-14 15:00:00 NR 21.7734 121.102 main 23 23 __________P___ -1 21.7734 121.102 7 12 68
1928165N20117 1928 31 WP MM NOT_NAMED 1928-06-14 18:00:00 NR 21.9984 121.723 main 82 92 __________P___ -1 21.9984 121.723 7 13 69
1928165N20117 1928 31 WP MM NOT_NAMED 1928-06-14 21:00:00 NR 22.2244 122.374 main 143 143 __________P___ -1 22.2244 122.374 7 13 70
1928165N20117 1928 31 WP MM NOT_NAMED 1928-06-14 22:00:00 NR 22.3000 122.600 main 152 152 __________O___ -1 22.3000 122.600 7 13 71
1928165N20117 1928 31 WP MM NOT_NAMED 1928-06-15 00:00:00 NR 22.4357 123.047 main 181 186 __________P___ -1 22.4357 123.047 7 13 72
1928165N20117 1928 31 WP MM NOT_NAMED 1928-06-15 03:00:00 NR 22.6394 123.747 main 242 249 __________P___ -1 22.6394 123.747 7 14 73
1928165N20117 1928 31 WP MM NOT_NAMED 1928-06-15 06:00:00 NR 22.8579 124.497 main 317 317 __________P___ -1 22.8579 124.497 7 15 72
1928165N20117 1928 31 WP MM NOT_NAMED 1928-06-15 09:00:00 NR 23.1072 125.311 main 379 388 __________P___ -1 23.1072 125.311 7 16 71
1928165N20117 1928 31 WP MM NOT_NAMED 1928-06-15 10:00:00 NR 23.2000 125.600 main 403 403 __________O___ -1 23.2000 125.600 7 17 71
1928165N20117 1928 31 WP MM NOT_NAMED 1928-06-15 12:00:00 NR 23.3917 126.208 main 453 463 __________P___ -1 23.3917 126.208 7 18 71
1928165N20117 1928 31 WP MM NOT_NAMED 1928-06-15 15:00:00 NR 23.7104 127.182 main 545 545 __________P___ -1 23.7104 127.182 7 20 70
1928165N20117 1928 31 WP MM NOT_NAMED 1928-06-15 18:00:00 NR 24.0664 128.207 main 634 644 __________P___ -1 24.0664 128.207 7 20 68
1928165N20117 1928 31 WP MM NOT_NAMED 1928-06-15 21:00:00 NR 24.4601 129.252 main 738 724 __________P___ -1 24.4601 129.252 7 21 67
1928165N20117 1928 31 WP MM NOT_NAMED 1928-06-15 22:00:00 NR 24.6000 129.600 main 722 682 __________O___ -1 24.6000 129.600 7 21 66
1928165N20117 1928 31 WP MM NOT_NAMED 1928-06-16 00:00:00 NR 24.8906 130.303 main 682 628 __________P___ -1 24.8906 130.303 7 21 65
1928165N20117 1928 31 WP MM NOT_NAMED 1928-06-16 03:00:00 NR 25.3587 131.365 main 628 598 __________P___ -1 25.3587 131.365 7 21 63
1928165N20117 1928 31 WP MM NOT_NAMED 1928-06-16 06:00:00 NR 25.8478 132.406 main 603 578 __________P___ -1 25.8478 132.406 7 21 62
1928165N20117 1928 31 WP MM NOT_NAMED 1928-06-16 09:00:00 NR 26.3390 133.391 main 586 576 __________P___ -1 26.3390 133.391 7 20 61
1928165N20117 1928 31 WP MM NOT_NAMED 1928-06-16 10:00:00 NR 26.5000 133.700 main 581 576 __________O___ -1 26.5000 133.700 7 19 59
1928165N20117 1928 31 WP MM NOT_NAMED 1928-06-16 12:00:00 NR 26.8152 134.286 main 584 576 __________P___ -1 26.8152 134.286 7 18 58
1928165N20117 1928 31 WP MM NOT_NAMED 1928-06-16 15:00:00 NR 27.2735 135.095 main 581 581 __________P___ -1 27.2735 135.095 7 17 57
1928165N20117 1928 31 WP MM NOT_NAMED 1928-06-16 18:00:00 NR 27.7189 135.845 main 592 585 __________P___ -1 27.7189 135.845 7 16 56
1928165N20117 1928 31 WP MM NOT_NAMED 1928-06-16 21:00:00 NR 28.1557 136.563 main 585 575 __________P___ -1 28.1557 136.563 7 15 55
1928165N20117 1928 31 WP MM NOT_NAMED 1928-06-16 22:00:00 NR 28.3000 136.800 main 576 __________O___ -1 28.3000 136.800 7 15 55

Digital Typhoon Data and Search

About IBTrACS Database

This database is a web-friendly format of International Best Track Archive for Climate Stewardship (IBTrACS), a global best track data archive curated by NOAA dating back to 1842.

Updated: 2021-11-26